Time;durP1;ratioP1;P1;durP2;ratioP2;P2;SDS_P1;SDS_P2;PMS_P1;PMS_P2;Temp;Humidity;BMP_temperature;BMP_pressure;BME280_temperature;BME280_humidity;BME280_pressure;Samples;Min_cycle;Max_cycle;Signal;HPM_P1;HPM_P2
2023/06/23 00:01:18;;;;;;;15.57;8.75;;;;;;;23.30;76.75;97873.81;4953981;28;20027;-76
2023/06/23 00:03:45;;;;;;;14.05;8.57;;;;;;;22.93;77.21;97876.66;4954195;29;20043;-76
2023/06/23 00:06:11;;;;;;;20.70;9.38;;;;;;;22.86;77.99;97879.94;4954394;29;20481;-75
2023/06/23 00:08:40;;;;;;;17.42;9.45;;;;;;;22.84;78.93;97893.19;4940545;28;20032;-76
2023/06/23 00:11:10;;;;;;;24.67;9.85;;;;;;;23.08;78.20;97892.56;4951065;28;20020;-76
2023/06/23 00:13:35;;;;;;;18.73;9.63;;;;;;;22.80;78.39;97894.97;4950877;29;20036;-76
2023/06/23 00:16:04;;;;;;;16.90;10.38;;;;;;;22.75;79.41;97900.66;4960329;28;20433;-76
2023/06/23 00:18:36;;;;;;;18.10;9.93;;;;;;;22.71;79.19;97898.91;4951425;29;20036;-76
2023/06/23 00:21:06;;;;;;;16.88;10.32;;;;;;;23.08;78.24;97903.56;4936964;28;20035;-75
2023/06/23 00:23:31;;;;;;;15.93;9.40;;;;;;;22.62;79.30;97907.16;4956300;28;20045;-75
2023/06/23 00:25:57;;;;;;;16.95;9.80;;;;;;;22.39;79.60;97903.03;4970281;28;20106;-74
2023/06/23 00:28:24;;;;;;;15.82;9.60;;;;;;;22.36;79.79;97907.22;4955159;28;20031;-75
2023/06/23 00:30:50;;;;;;;16.10;9.20;;;;;;;22.47;79.34;97911.25;4943670;28;20043;-75
2023/06/23 00:33:17;;;;;;;14.82;7.95;;;;;;;22.13;79.86;97921.50;4951261;28;20038;-75
2023/06/23 00:35:43;;;;;;;15.55;7.00;;;;;;;22.33;78.54;97920.81;4937988;29;20027;-75
2023/06/23 00:38:09;;;;;;;11.38;6.50;;;;;;;22.22;78.30;97922.31;4921216;29;20062;-76
2023/06/23 00:40:34;;;;;;;9.70;5.50;;;;;;;21.98;78.50;97936.53;4934765;29;20082;-76
2023/06/23 00:43:00;;;;;;;9.23;5.95;;;;;;;21.99;78.44;97944.44;4950370;29;20035;-75
2023/06/23 00:45:26;;;;;;;12.43;6.35;;;;;;;21.91;79.01;97937.00;4934538;29;20086;-75
2023/06/23 00:47:51;;;;;;;13.02;7.53;;;;;;;22.21;78.96;97939.88;4938146;29;20050;-75
2023/06/23 00:50:19;;;;;;;16.63;8.07;;;;;;;22.09;80.35;97931.50;4969758;28;20458;-76
2023/06/23 00:52:50;;;;;;;16.58;8.27;;;;;;;21.91;80.82;97931.53;4953428;28;20039;-76
2023/06/23 00:55:26;;;;;;;9.82;5.47;;;;;;;21.85;77.24;97924.59;4937781;29;20043;-76
2023/06/23 00:57:54;;;;;;;12.05;5.38;;;;;;;21.93;78.43;97923.00;4953564;29;20171;-75
2023/06/23 01:00:20;;;;;;;8.27;5.22;;;;;;;21.55;78.76;97933.78;4953428;28;20452;-75
2023/06/23 01:02:51;;;;;;;10.40;5.70;;;;;;;21.74;79.63;97941.69;4953139;28;20035;-75
2023/06/23 01:05:18;;;;;;;12.40;5.78;;;;;;;21.81;79.73;97942.81;4953404;29;20039;-75
2023/06/23 01:07:51;;;;;;;8.75;5.53;;;;;;;22.06;79.17;97949.41;4946300;28;20154;-75
2023/06/23 01:10:24;;;;;;;7.63;5.30;;;;;;;22.15;78.81;97952.19;4934153;29;20409;-76
2023/06/23 01:13:08;;;;;;;10.05;5.63;;;;;;;22.06;78.77;97959.59;4933264;29;20049;-76
2023/06/23 01:15:40;;;;;;;19.67;5.15;;;;;;;21.92;78.82;97966.06;4941418;29;20035;-76
2023/06/23 01:18:30;;;;;;;10.25;4.57;;;;;;;21.98;78.60;97962.00;4937939;29;20038;-75
2023/06/23 01:21:01;;;;;;;8.35;4.32;;;;;;;21.73;78.90;97957.31;4945151;28;20470;-76
2023/06/23 01:23:58;;;;;;;11.02;4.53;;;;;;;21.71;78.89;97959.56;4940854;29;20039;-74
2023/06/23 01:26:37;;;;;;;8.80;3.92;;;;;;;21.80;77.63;97956.81;4954160;29;20473;-75
2023/06/23 01:29:09;;;;;;;5.82;3.83;;;;;;;21.74;77.89;97961.69;4955004;28;20047;-75
2023/06/23 01:32:00;;;;;;;7.63;3.67;;;;;;;21.56;78.06;97962.81;4950071;29;20039;-76
2023/06/23 01:34:33;;;;;;;7.25;2.80;;;;;;;21.30;79.24;97964.69;4950305;29;20475;-76
2023/06/23 01:37:07;;;;;;;5.35;3.00;;;;;;;21.44;79.09;97965.38;4934564;29;20163;-76
2023/06/23 01:39:35;;;;;;;7.32;3.13;;;;;;;21.49;78.62;97972.63;4947728;28;20042;-75
2023/06/23 01:42:07;;;;;;;5.57;3.17;;;;;;;21.18;78.82;97961.75;4934589;29;20027;-77
2023/06/23 01:44:34;;;;;;;5.22;2.70;;;;;;;21.67;78.01;97964.09;4934473;29;20036;-76
2023/06/23 01:47:04;;;;;;;6.90;3.20;;;;;;;21.72;77.37;97972.16;4934457;29;20568;-74
2023/06/23 01:49:36;;;;;;;5.13;2.70;;;;;;;21.60;78.03;97966.50;4934926;29;20052;-75
2023/06/23 01:52:04;;;;;;;5.70;2.92;;;;;;;21.90;77.11;97962.84;4949379;29;20051;-75
2023/06/23 01:54:30;;;;;;;4.78;3.00;;;;;;;21.63;78.09;97973.28;4918207;29;20028;-73
2023/06/23 01:56:56;;;;;;;5.07;3.30;;;;;;;21.47;79.19;97970.19;4933461;29;20027;-74
2023/06/23 01:59:22;;;;;;;7.53;4.28;;;;;;;21.66;78.11;97954.25;4951461;29;20477;-74
2023/06/23 02:01:49;;;;;;;6.07;3.47;;;;;;;21.66;78.65;97962.47;4952543;28;20035;-76
2023/06/23 02:04:15;;;;;;;5.75;3.13;;;;;;;21.41;78.63;97966.00;4952213;28;20039;-75
2023/06/23 02:06:42;;;;;;;8.82;3.80;;;;;;;21.57;78.27;97967.13;4952409;28;20035;-75
2023/06/23 02:09:11;;;;;;;8.63;3.05;;;;;;;21.50;78.34;97975.03;4934297;28;20032;-75
2023/06/23 02:11:37;;;;;;;5.97;3.58;;;;;;;21.27;78.76;97966.13;4949531;29;20082;-75
2023/06/23 02:14:03;;;;;;;7.35;3.50;;;;;;;21.42;78.06;97967.63;4917259;29;20028;-74
2023/06/23 02:16:31;;;;;;;6.57;3.85;;;;;;;21.27;79.11;97970.78;4946166;29;20037;-75
2023/06/23 02:18:57;;;;;;;4.78;3.33;;;;;;;21.41;78.67;97971.47;4952568;29;20539;-75
2023/06/23 02:21:23;;;;;;;7.50;3.83;;;;;;;21.02;79.76;97975.06;4955825;28;20057;-75
2023/06/23 02:23:51;;;;;;;6.75;3.78;;;;;;;21.17;79.22;97962.88;4936446;28;20062;-74
2023/06/23 02:26:17;;;;;;;5.60;3.22;;;;;;;21.12;78.62;97957.56;4956202;28;20043;-74
2023/06/23 02:28:49;;;;;;;5.68;3.50;;;;;;;21.05;79.43;97977.19;4956326;28;20074;-75
2023/06/23 02:31:19;;;;;;;8.18;3.70;;;;;;;20.87;80.14;97974.66;4942184;29;20035;-75
2023/06/23 02:33:44;;;;;;;5.72;3.40;;;;;;;21.11;78.87;97962.22;4936816;29;20401;-75
2023/06/23 02:36:11;;;;;;;5.72;3.40;;;;;;;21.24;78.34;97965.94;4966213;28;20046;-75
2023/06/23 02:38:38;;;;;;;9.65;3.60;;;;;;;21.10;78.66;97965.25;4953138;29;20619;-74
2023/06/23 02:41:06;;;;;;;3.83;3.20;;;;;;;21.24;78.79;97971.44;4936995;29;20123;-74
2023/06/23 02:43:36;;;;;;;5.80;3.50;;;;;;;21.17;78.54;97976.56;4952669;29;20027;-75
2023/06/23 02:46:03;;;;;;;6.07;3.58;;;;;;;21.20;78.13;97975.94;4936959;29;20039;-75
2023/06/23 02:48:37;;;;;;;6.47;2.70;;;;;;;20.88;79.45;97977.09;4936858;29;20027;-75
2023/06/23 02:51:02;;;;;;;6.35;3.17;;;;;;;20.80;79.82;97972.38;4936954;29;20027;-75
2023/06/23 02:53:32;;;;;;;4.30;3.08;;;;;;;20.86;79.18;97973.06;4936649;29;20493;-74
2023/06/23 02:56:04;;;;;;;5.95;2.78;;;;;;;20.96;78.49;97967.28;4938067;29;20040;-74
2023/06/23 02:58:31;;;;;;;3.22;2.53;;;;;;;20.54;79.52;97975.00;4937017;29;20482;-74
2023/06/23 03:00:58;;;;;;;8.98;2.47;;;;;;;20.37;79.19;97990.53;4952871;28;20035;-76
2023/06/23 03:03:26;;;;;;;6.53;2.78;;;;;;;20.43;78.99;97994.72;4945261;29;20068;-75
2023/06/23 03:05:52;;;;;;;6.63;1.92;;;;;;;20.22;78.55;97999.91;4940640;29;20027;-75
2023/06/23 03:08:17;;;;;;;6.10;2.50;;;;;;;20.23;78.60;98007.00;4920815;29;20505;-74
2023/06/23 03:10:43;;;;;;;3.50;2.40;;;;;;;20.04;78.76;97998.16;4936756;29;20027;-75
2023/06/23 03:13:09;;;;;;;4.47;2.78;;;;;;;20.06;77.34;98001.38;4920452;29;20059;-75
2023/06/23 03:15:36;;;;;;;3.00;2.60;;;;;;;20.04;77.06;98013.75;4943355;29;20097;-75
2023/06/23 03:18:08;;;;;;;4.40;3.47;;;;;;;20.03;75.72;98018.38;4936351;29;20506;-76
2023/06/23 03:20:46;;;;;;;3.95;3.55;;;;;;;19.98;75.82;98021.25;4942950;29;20478;-74
2023/06/23 03:23:13;;;;;;;8.35;3.83;;;;;;;19.74;75.47;98010.59;4974669;28;20121;-75
2023/06/23 03:25:41;;;;;;;5.85;4.10;;;;;;;19.82;75.17;98019.97;4955284;28;20393;-75
2023/06/23 03:28:09;;;;;;;7.35;4.50;;;;;;;19.67;74.58;98023.88;4955200;28;20489;-75
2023/06/23 03:30:44;;;;;;;7.45;4.90;;;;;;;19.74;74.32;98032.44;4955422;28;20026;-75
2023/06/23 03:33:36;;;;;;;6.72;4.70;;;;;;;19.43;74.86;98030.69;4955108;29;20046;-76
2023/06/23 03:36:08;;;;;;;5.28;4.55;;;;;;;19.67;74.49;98036.72;4937016;29;20624;-78
2023/06/23 03:38:39;;;;;;;5.50;4.65;;;;;;;19.53;74.67;98031.31;4971542;28;20027;-77
2023/06/23 03:41:09;;;;;;;7.43;4.95;;;;;;;19.69;74.05;98023.56;4955506;29;20046;-76
2023/06/23 03:43:37;;;;;;;6.32;4.63;;;;;;;19.54;74.45;98026.63;4955042;29;20035;-76
2023/06/23 03:46:11;;;;;;;4.72;4.22;;;;;;;19.92;72.60;98019.75;4939118;29;20027;-75
2023/06/23 03:48:38;;;;;;;5.40;4.70;;;;;;;19.70;73.99;98025.97;4954927;28;20041;-74
2023/06/23 03:51:04;;;;;;;6.63;4.45;;;;;;;19.51;74.02;98029.97;4956178;28;20031;-76
2023/06/23 03:53:31;;;;;;;6.70;4.88;;;;;;;19.57;74.21;98032.28;4944662;28;20405;-76
2023/06/23 03:55:58;;;;;;;5.38;4.65;;;;;;;19.71;72.79;98033.06;4936489;29;20449;-77
2023/06/23 03:58:24;;;;;;;6.82;5.15;;;;;;;19.87;72.79;98036.25;4951913;28;20055;-76
2023/06/23 04:00:50;;;;;;;7.43;4.90;;;;;;;19.50;73.63;98048.28;4952246;29;20035;-77
2023/06/23 04:03:17;;;;;;;5.38;4.10;;;;;;;19.44;72.40;98048.72;4951344;29;20505;-77
2023/06/23 04:05:43;;;;;;;7.72;4.60;;;;;;;19.37;72.21;98056.50;4936076;29;20031;-77
2023/06/23 04:08:09;;;;;;;5.07;4.32;;;;;;;19.38;72.45;98055.38;4935650;29;20039;-77
2023/06/23 04:10:35;;;;;;;5.70;4.38;;;;;;;19.17;71.98;98047.56;4920074;29;20043;-77
2023/06/23 04:13:01;;;;;;;7.10;4.38;;;;;;;19.36;71.84;98057.59;4936059;29;20117;-77
2023/06/23 04:15:27;;;;;;;5.95;4.45;;;;;;;19.32;71.31;98036.31;4950926;29;20035;-77
2023/06/23 04:17:54;;;;;;;4.78;3.72;;;;;;;19.51;70.23;98046.38;4946746;29;20040;-75
2023/06/23 04:20:21;;;;;;;4.75;3.97;;;;;;;19.41;70.33;98052.03;4940959;28;20097;-75
2023/06/23 04:22:49;;;;;;;6.50;4.05;;;;;;;19.43;70.18;98045.16;4961190;28;20038;-75
2023/06/23 04:25:16;;;;;;;5.05;3.80;;;;;;;20.00;69.29;98055.34;4958706;28;20557;-74
2023/06/23 04:27:42;;;;;;;6.95;3.80;;;;;;;19.71;69.25;98057.69;4957054;28;20695;-75
2023/06/23 04:30:08;;;;;;;8.15;4.18;;;;;;;19.86;69.19;98056.53;4958735;28;20031;-75
2023/06/23 04:32:35;;;;;;;3.95;3.65;;;;;;;20.34;67.17;98046.66;4968582;28;20042;-73
2023/06/23 04:35:00;;;;;;;6.47;4.10;;;;;;;19.89;68.88;98058.63;4970800;28;20035;-76
2023/06/23 04:37:31;;;;;;;4.93;3.95;;;;;;;20.27;68.41;98061.88;4979525;28;20469;-76
2023/06/23 04:39:59;;;;;;;7.43;4.32;;;;;;;19.96;69.28;98072.69;4974699;28;20043;-76
2023/06/23 04:42:29;;;;;;;5.28;4.20;;;;;;;20.22;68.37;98065.56;4976151;28;20086;-76
2023/06/23 04:44:59;;;;;;;4.70;3.75;;;;;;;19.89;68.95;98072.31;4968309;28;20035;-76
2023/06/23 04:47:25;;;;;;;6.88;4.88;;;;;;;19.73;69.04;98068.28;4937981;28;20089;-74
2023/06/23 04:49:58;;;;;;;5.55;4.43;;;;;;;19.89;68.22;98064.09;4954479;28;20100;-75
2023/06/23 04:52:26;;;;;;;5.72;4.15;;;;;;;19.72;69.22;98055.75;4964790;28;20094;-75
2023/06/23 04:54:53;;;;;;;5.55;4.45;;;;;;;19.90;68.96;98073.94;4955680;28;20051;-75
2023/06/23 04:57:21;;;;;;;7.45;4.43;;;;;;;20.16;68.51;98072.25;4971202;28;20049;-75
2023/06/23 04:59:52;;;;;;;4.97;4.43;;;;;;;19.94;69.20;98066.72;4956209;28;20432;-76
2023/06/23 05:02:21;;;;;;;5.28;4.78;;;;;;;19.98;69.65;98075.91;4969089;28;20428;-74
2023/06/23 05:04:47;;;;;;;6.10;4.97;;;;;;;19.79;70.45;98078.00;4947017;28;20023;-76
2023/06/23 05:07:14;;;;;;;5.13;4.63;;;;;;;19.85;70.64;98077.59;4958843;28;20379;-76
2023/06/23 05:09:42;;;;;;;5.93;5.03;;;;;;;19.77;70.73;98069.28;4940581;29;20031;-76
2023/06/23 05:12:09;;;;;;;6.65;5.03;;;;;;;19.56;71.50;98068.09;4974316;28;20050;-77
2023/06/23 05:14:38;;;;;;;7.40;5.57;;;;;;;19.97;70.65;98082.53;4957572;28;20034;-77
2023/06/23 05:17:05;;;;;;;6.82;5.57;;;;;;;19.96;70.74;98080.88;4939271;29;20091;-75
2023/06/23 05:19:31;;;;;;;7.45;5.65;;;;;;;19.77;70.99;98093.88;4945026;28;20039;-77
2023/06/23 05:21:58;;;;;;;8.30;5.40;;;;;;;19.82;71.54;98104.72;4953028;28;20110;-76
2023/06/23 05:24:27;;;;;;;6.93;5.63;;;;;;;19.76;71.67;98105.94;4964856;28;20504;-75
2023/06/23 05:26:55;;;;;;;6.30;5.70;;;;;;;19.72;71.12;98104.94;4940435;28;20039;-75
2023/06/23 05:29:20;;;;;;;6.28;5.25;;;;;;;19.81;70.09;98092.19;4944127;29;20493;-75
2023/06/23 05:31:47;;;;;;;5.95;5.03;;;;;;;19.75;70.31;98101.56;4968939;28;20066;-76
2023/06/23 05:34:16;;;;;;;5.57;4.97;;;;;;;20.02;69.21;98104.28;4953606;28;20023;-76
2023/06/23 05:36:41;;;;;;;5.78;5.10;;;;;;;19.61;69.52;98114.44;4967506;28;20031;-75
2023/06/23 05:39:08;;;;;;;6.22;4.80;;;;;;;19.47;70.71;98113.63;4940648;29;20086;-75
2023/06/23 05:41:33;;;;;;;8.73;5.32;;;;;;;19.72;69.47;98113.94;4933743;29;20512;-75
2023/06/23 05:43:59;;;;;;;6.05;5.40;;;;;;;19.43;70.86;98107.16;4961858;28;20027;-75
2023/06/23 05:46:26;;;;;;;6.85;4.80;;;;;;;19.64;70.06;98119.31;4963233;28;20040;-75
2023/06/23 05:48:53;;;;;;;10.30;5.13;;;;;;;19.28;70.72;98122.72;4949850;28;20477;-75
2023/06/23 05:51:25;;;;;;;8.15;4.82;;;;;;;19.60;69.47;98129.25;4949594;29;20058;-75
2023/06/23 05:53:54;;;;;;;6.38;4.82;;;;;;;19.59;69.55;98133.06;4933214;29;20122;-75
2023/06/23 05:56:34;;;;;;;8.73;5.13;;;;;;;19.44;69.67;98134.19;4933506;29;20107;-75
2023/06/23 05:59:03;;;;;;;5.25;4.60;;;;;;;19.43;69.82;98139.94;4948312;29;20047;-75
2023/06/23 06:01:30;;;;;;;5.40;4.72;;;;;;;19.53;69.49;98147.97;4952479;28;20031;-75
2023/06/23 06:04:08;;;;;;;4.90;4.40;;;;;;;19.53;69.96;98150.69;4939203;29;20039;-75
2023/06/23 06:06:35;;;;;;;7.75;5.20;;;;;;;19.65;69.45;98142.81;4952495;29;20039;-74
2023/06/23 06:09:01;;;;;;;6.57;4.65;;;;;;;19.07;70.10;98153.41;4968553;28;20497;-75
2023/06/23 06:11:27;;;;;;;10.52;5.78;;;;;;;19.57;69.33;98151.69;4952371;29;20509;-74
2023/06/23 06:13:53;;;;;;;5.38;4.55;;;;;;;19.58;69.02;98154.09;4947402;28;20039;-75
2023/06/23 06:16:18;;;;;;;7.88;5.00;;;;;;;19.32;69.71;98156.50;4960655;28;20501;-75
2023/06/23 06:18:45;;;;;;;6.47;4.47;;;;;;;19.39;69.59;98166.25;4936358;29;20030;-75
2023/06/23 06:21:11;;;;;;;5.70;4.20;;;;;;;19.15;69.95;98155.47;4970461;28;20035;-76
2023/06/23 06:23:37;;;;;;;7.05;4.40;;;;;;;18.94;70.89;98176.03;4937159;29;20049;-75
2023/06/23 06:26:03;;;;;;;5.15;4.13;;;;;;;19.09;70.27;98187.50;4968346;28;20074;-75
2023/06/23 06:28:29;;;;;;;6.03;4.60;;;;;;;18.81;72.34;98180.31;4952092;29;20112;-76
2023/06/23 06:30:57;;;;;;;5.68;4.95;;;;;;;18.87;72.95;98191.97;4952219;28;20051;-76
2023/06/23 06:33:23;;;;;;;5.82;4.68;;;;;;;19.10;72.51;98197.31;4963098;28;20028;-74
2023/06/23 06:35:51;;;;;;;5.72;4.93;;;;;;;18.99;73.22;98204.06;4932997;29;20038;-74
2023/06/23 06:38:17;;;;;;;7.05;4.93;;;;;;;18.41;75.44;98200.03;4961875;28;20016;-74
2023/06/23 06:40:43;;;;;;;6.22;5.60;;;;;;;18.58;74.45;98201.16;4949058;28;20051;-74
2023/06/23 06:43:08;;;;;;;6.13;5.30;;;;;;;18.50;75.20;98206.47;4948776;29;20028;-74
2023/06/23 06:45:34;;;;;;;8.63;6.00;;;;;;;18.57;75.29;98204.19;4944432;29;20047;-73
2023/06/23 06:48:00;;;;;;;7.93;5.80;;;;;;;18.71;75.93;98205.06;4955164;28;20024;-76
2023/06/23 06:50:26;;;;;;;7.40;6.05;;;;;;;18.22;76.91;98218.28;4949169;28;20115;-74
2023/06/23 06:52:51;;;;;;;6.70;5.65;;;;;;;18.21;77.43;98205.75;4931746;29;20526;-77
2023/06/23 06:55:20;;;;;;;7.38;5.43;;;;;;;18.02;78.07;98218.56;4945278;29;20035;-75
2023/06/23 06:57:47;;;;;;;6.80;5.60;;;;;;;17.93;79.40;98226.56;4947840;28;20039;-75
2023/06/23 07:00:17;;;;;;;9.73;6.53;;;;;;;17.99;80.08;98224.59;4917293;29;20043;-75
2023/06/23 07:02:43;;;;;;;9.63;6.95;;;;;;;18.17;80.16;98223.81;4948640;28;20036;-75
2023/06/23 07:05:08;;;;;;;12.80;6.88;;;;;;;18.01;79.53;98233.28;4932890;29;20492;-76
2023/06/23 07:07:34;;;;;;;6.60;5.93;;;;;;;18.07;79.14;98226.66;4951363;29;20486;-75
2023/06/23 07:09:59;;;;;;;7.63;6.55;;;;;;;18.11;78.88;98233.16;4951975;28;20034;-76
2023/06/23 07:12:25;;;;;;;7.40;6.53;;;;;;;17.77;80.92;98239.56;4966036;28;20039;-76
2023/06/23 07:14:50;;;;;;;7.15;6.45;;;;;;;18.03;80.09;98241.97;4937135;29;20035;-75
2023/06/23 07:17:16;;;;;;;9.02;6.75;;;;;;;18.21;80.32;98254.81;4957070;29;20043;-76
2023/06/23 07:19:41;;;;;;;8.13;6.50;;;;;;;18.29;78.93;98235.09;4942869;29;20054;-76
2023/06/23 07:22:07;;;;;;;7.90;6.00;;;;;;;17.81;79.92;98251.47;4965476;28;20114;-75
2023/06/23 07:24:32;;;;;;;8.57;7.00;;;;;;;18.05;79.37;98250.66;4942898;29;20031;-76
2023/06/23 07:26:58;;;;;;;8.25;5.85;;;;;;;18.12;79.12;98246.50;4952089;28;20036;-76
2023/06/23 07:29:23;;;;;;;8.52;5.97;;;;;;;18.26;77.77;98252.84;4936117;29;20032;-75
2023/06/23 07:31:49;;;;;;;6.75;5.75;;;;;;;18.05;78.45;98248.75;4936055;29;20031;-75
2023/06/23 07:34:14;;;;;;;7.43;5.45;;;;;;;17.93;78.11;98265.53;4968790;28;20461;-76
2023/06/23 07:36:39;;;;;;;8.07;6.32;;;;;;;18.57;75.63;98253.28;4959632;28;20401;-75
2023/06/23 07:39:05;;;;;;;6.15;4.90;;;;;;;18.28;75.99;98247.09;4959237;28;20050;-74
2023/06/23 07:41:30;;;;;;;6.38;5.07;;;;;;;18.21;76.15;98252.09;4955118;29;20043;-76
2023/06/23 07:43:55;;;;;;;7.40;5.65;;;;;;;18.33;75.20;98252.50;4970676;28;20596;-76
2023/06/23 07:46:21;;;;;;;9.13;5.05;;;;;;;18.46;75.20;98257.28;4954881;29;20046;-75
2023/06/23 07:48:46;;;;;;;6.10;4.85;;;;;;;18.22;75.45;98251.00;4956015;28;20082;-76
2023/06/23 07:51:12;;;;;;;9.48;5.63;;;;;;;18.51;74.97;98270.81;4955298;28;20068;-76
2023/06/23 07:53:37;;;;;;;6.03;5.32;;;;;;;18.44;75.16;98256.69;4970661;28;20023;-75
2023/06/23 07:56:03;;;;;;;4.90;4.32;;;;;;;18.27;75.29;98270.03;4970934;28;20043;-76
2023/06/23 07:58:28;;;;;;;5.93;4.88;;;;;;;18.30;75.39;98258.53;4964806;28;20054;-77
2023/06/23 08:00:53;;;;;;;6.75;4.82;;;;;;;18.40;75.34;98261.13;4922090;28;20051;-75
2023/06/23 08:03:19;;;;;;;5.80;4.88;;;;;;;18.20;75.54;98269.56;4946430;29;20037;-76
2023/06/23 08:05:45;;;;;;;5.95;5.03;;;;;;;18.39;75.14;98273.16;4950809;28;20079;-76
2023/06/23 08:08:10;;;;;;;5.88;5.30;;;;;;;18.16;76.12;98277.50;4957280;29;20422;-77
2023/06/23 08:10:36;;;;;;;6.20;5.60;;;;;;;17.89;77.02;98280.03;4966841;28;20044;-75
2023/06/23 08:13:01;;;;;;;8.02;5.50;;;;;;;18.18;76.02;98288.94;4935418;29;20059;-76
2023/06/23 08:15:26;;;;;;;5.72;4.82;;;;;;;17.86;76.36;98292.31;4952245;29;20061;-76
2023/06/23 08:17:52;;;;;;;5.93;5.32;;;;;;;18.13;76.29;98285.47;4955510;28;20027;-76
2023/06/23 08:20:17;;;;;;;8.75;5.35;;;;;;;18.03;76.70;98297.31;4966993;28;20094;-76
2023/06/23 08:22:43;;;;;;;5.22;4.72;;;;;;;18.17;76.24;98291.97;4969159;28;20027;-76
2023/06/23 08:25:08;;;;;;;6.82;5.30;;;;;;;18.05;76.83;98299.72;4965950;28;20123;-76
2023/06/23 08:27:34;;;;;;;8.82;5.78;;;;;;;17.91;77.40;98305.88;4951035;28;20038;-76
2023/06/23 08:29:59;;;;;;;6.35;4.63;;;;;;;18.13;76.48;98304.56;4954927;28;20060;-76
2023/06/23 08:32:24;;;;;;;9.27;4.70;;;;;;;17.93;77.41;98300.94;4959696;28;20035;-76
2023/06/23 08:34:50;;;;;;;5.32;4.45;;;;;;;18.08;76.44;98310.06;4947573;28;20046;-76
2023/06/23 08:37:15;;;;;;;6.03;5.10;;;;;;;17.68;78.35;98308.56;4961148;28;20024;-76
2023/06/23 08:39:41;;;;;;;5.50;4.93;;;;;;;17.87;77.29;98315.75;4957058;28;20090;-76
2023/06/23 08:42:07;;;;;;;5.20;4.70;;;;;;;18.17;76.69;98324.66;4928117;29;20486;-76
2023/06/23 08:44:35;;;;;;;8.25;5.28;;;;;;;18.20;76.79;98324.09;4950326;28;20042;-76
2023/06/23 08:47:04;;;;;;;5.70;4.72;;;;;;;18.05;77.54;98337.88;4934761;29;20136;-76
2023/06/23 08:49:31;;;;;;;5.25;4.72;;;;;;;17.94;77.58;98340.75;4947688;29;20055;-76
2023/06/23 08:51:57;;;;;;;6.15;4.55;;;;;;;17.87;78.04;98347.63;4952997;28;20035;-75
2023/06/23 08:54:22;;;;;;;6.53;5.22;;;;;;;17.87;78.25;98348.44;4945366;29;20035;-76
2023/06/23 08:56:48;;;;;;;6.45;5.50;;;;;;;17.85;78.63;98361.50;4969721;28;20497;-76
2023/06/23 08:59:13;;;;;;;5.53;5.03;;;;;;;17.88;77.50;98354.69;4953066;28;20490;-75
2023/06/23 09:01:51;;;;;;;7.03;4.55;;;;;;;18.11;77.58;98356.63;4945165;29;20031;-76
2023/06/23 09:04:17;;;;;;;5.90;5.28;;;;;;;18.24;77.17;98360.56;4925738;29;20122;-76
2023/06/23 09:06:42;;;;;;;7.30;5.22;;;;;;;18.22;76.48;98360.88;4942331;29;20118;-76
2023/06/23 09:09:07;;;;;;;5.72;4.60;;;;;;;18.09;75.98;98361.53;4947025;29;20047;-76
2023/06/23 09:11:33;;;;;;;5.03;4.55;;;;;;;18.16;76.29;98377.56;4961890;28;20028;-76
2023/06/23 09:14:00;;;;;;;7.15;4.75;;;;;;;18.20;76.11;98373.16;4935182;29;20043;-76
2023/06/23 09:16:26;;;;;;;6.40;5.07;;;;;;;18.24;75.97;98374.22;4946504;29;20477;-76
2023/06/23 09:18:52;;;;;;;5.63;5.03;;;;;;;18.19;75.40;98387.88;4953246;29;20115;-76
2023/06/23 09:21:18;;;;;;;5.20;4.70;;;;;;;18.39;74.44;98382.22;4972477;28;20030;-75
2023/06/23 09:24:04;;;;;;;5.82;4.50;;;;;;;18.30;74.51;98384.78;4953281;28;20035;-76
2023/06/23 09:26:43;;;;;;;8.25;4.65;;;;;;;18.41;74.93;98390.94;4969753;28;20071;-75
2023/06/23 09:29:22;;;;;;;5.13;4.63;;;;;;;18.49;74.79;98398.50;4953684;29;20106;-76
2023/06/23 09:31:50;;;;;;;5.45;4.95;;;;;;;18.31;75.19;98402.75;4935989;28;20498;-77
2023/06/23 09:34:20;;;;;;;6.50;4.95;;;;;;;18.32;75.27;98403.59;4964807;28;20027;-76
2023/06/23 09:36:46;;;;;;;5.28;4.78;;;;;;;18.30;75.15;98405.75;4940124;28;20043;-77
2023/06/23 09:39:15;;;;;;;5.22;4.72;;;;;;;18.43;75.16;98416.00;4968699;28;20089;-76
2023/06/23 09:41:46;;;;;;;5.30;4.20;;;;;;;18.35;74.67;98409.25;4949228;29;20417;-75
2023/06/23 09:44:12;;;;;;;5.30;4.80;;;;;;;18.27;74.41;98411.81;4949275;29;20055;-76
2023/06/23 09:46:37;;;;;;;6.07;4.57;;;;;;;18.14;74.53;98418.75;4941046;29;20054;-76
2023/06/23 09:49:06;;;;;;;5.53;4.57;;;;;;;18.38;74.55;98419.59;4954863;28;20083;-76
2023/06/23 09:51:35;;;;;;;5.72;4.40;;;;;;;18.27;74.44;98425.44;4933533;29;20102;-77
2023/06/23 09:54:00;;;;;;;8.43;4.50;;;;;;;18.16;75.55;98434.81;4963696;28;20047;-75
2023/06/23 09:56:26;;;;;;;7.15;4.20;;;;;;;17.88;75.54;98431.78;4960934;28;20033;-76
2023/06/23 09:58:51;;;;;;;4.72;4.10;;;;;;;17.84;77.22;98443.53;4934584;29;20114;-75
2023/06/23 10:01:18;;;;;;;6.47;3.80;;;;;;;17.95;78.28;98448.63;4949384;29;20055;-75
2023/06/23 10:03:46;;;;;;;4.45;4.05;;;;;;;17.71;79.69;98455.91;4946104;28;20085;-75
2023/06/23 10:06:22;;;;;;;7.70;4.70;;;;;;;18.03;78.76;98460.84;4937806;29;20087;-75
2023/06/23 10:08:47;;;;;;;6.22;4.70;;;;;;;17.92;79.22;98457.38;4937223;29;20424;-75
2023/06/23 10:11:16;;;;;;;4.70;4.30;;;;;;;17.83;79.56;98456.34;4943506;28;20032;-75
2023/06/23 10:13:41;;;;;;;6.53;3.92;;;;;;;17.74;77.45;98452.63;4961826;28;20516;-75
2023/06/23 10:16:07;;;;;;;5.15;3.85;;;;;;;17.62;78.15;98460.31;4959468;28;20031;-74
2023/06/23 10:18:33;;;;;;;5.05;3.72;;;;;;;17.57;79.13;98468.56;4948917;29;20127;-75
2023/06/23 10:20:59;;;;;;;4.60;3.28;;;;;;;17.77;78.23;98473.84;4934328;28;20031;-75
2023/06/23 10:23:26;;;;;;;4.82;3.28;;;;;;;17.87;78.23;98471.06;4954702;28;20043;-75
2023/06/23 10:25:54;;;;;;;4.93;3.78;;;;;;;17.98;79.13;98462.78;4968470;28;20485;-75
2023/06/23 10:28:20;;;;;;;4.50;3.40;;;;;;;18.07;77.61;98488.31;4964048;28;20036;-75
2023/06/23 10:30:46;;;;;;;4.65;3.20;;;;;;;17.65;78.74;98487.00;4933134;29;20397;-75
2023/06/23 10:33:18;;;;;;;5.65;3.63;;;;;;;18.06;78.90;98486.72;4932803;29;20042;-75
2023/06/23 10:35:47;;;;;;;5.97;3.35;;;;;;;18.08;78.72;98484.50;4949072;29;20040;-75
2023/06/23 10:38:15;;;;;;;6.20;3.00;;;;;;;17.88;77.95;98491.75;4933035;29;20038;-75
2023/06/23 10:40:43;;;;;;;5.13;3.25;;;;;;;17.90;77.58;98484.09;4949010;29;20035;-75
2023/06/23 10:43:10;;;;;;;3.53;3.22;;;;;;;17.84;78.66;98490.69;4948660;29;20494;-75
2023/06/23 10:45:37;;;;;;;5.05;3.50;;;;;;;17.76;78.25;98494.00;4934037;29;20406;-75
2023/06/23 10:48:02;;;;;;;4.22;3.75;;;;;;;17.68;78.67;98497.34;4949613;29;20027;-75
2023/06/23 10:50:31;;;;;;;4.82;4.32;;;;;;;18.08;77.50;98507.13;4948968;29;20042;-75
2023/06/23 10:53:08;;;;;;;7.28;4.43;;;;;;;18.19;78.03;98514.13;4971350;28;20077;-75
2023/06/23 10:55:34;;;;;;;4.50;4.10;;;;;;;17.76;79.86;98515.81;4955245;29;20118;-75
2023/06/23 10:58:10;;;;;;;4.72;4.20;;;;;;;17.66;80.03;98521.34;4956247;28;20097;-75
2023/06/23 11:00:36;;;;;;;4.97;3.97;;;;;;;17.65;81.43;98527.88;4972489;28;20085;-76
2023/06/23 11:03:01;;;;;;;4.47;3.80;;;;;;;17.49;80.92;98523.56;4962885;28;20432;-76
2023/06/23 11:05:26;;;;;;;6.13;4.30;;;;;;;17.45;80.92;98519.78;4950012;28;20077;-75
2023/06/23 11:08:04;;;;;;;4.95;4.40;;;;;;;17.76;82.58;98526.69;4962648;28;20115;-75
2023/06/23 11:10:57;;;;;;;4.05;3.65;;;;;;;17.82;82.04;98532.94;4967841;28;20038;-76
2023/06/23 11:13:49;;;;;;;5.53;4.50;;;;;;;17.74;81.71;98528.91;4930079;28;20059;-76
2023/06/23 11:16:19;;;;;;;4.95;4.43;;;;;;;17.71;82.90;98529.44;4954748;29;20186;-74
2023/06/23 11:18:52;;;;;;;5.15;4.05;;;;;;;17.70;83.12;98544.19;4939253;29;20465;-75
2023/06/23 11:21:38;;;;;;;6.18;5.20;;;;;;;17.54;83.84;98529.03;4959304;28;20043;-75
2023/06/23 11:24:20;;;;;;;5.25;4.45;;;;;;;17.66;82.82;98548.56;4942511;29;20513;-75
2023/06/23 11:27:06;;;;;;;6.22;4.57;;;;;;;17.67;83.23;98543.91;4954680;28;20046;-75
2023/06/23 11:29:32;;;;;;;5.32;4.40;;;;;;;17.14;84.33;98550.97;4942541;29;20109;-75
2023/06/23 11:32:12;;;;;;;5.88;3.70;;;;;;;17.36;84.81;98548.69;4955285;29;20473;-75
2023/06/23 11:34:58;;;;;;;5.78;4.25;;;;;;;17.29;85.77;98553.63;4951161;28;20511;-74
2023/06/23 11:37:28;;;;;;;7.35;4.20;;;;;;;17.10;85.99;98560.78;4977340;28;20049;-75